Kemnitz Heliport

DE-0384 · Mecklenburg-Vorpommern, 德国

使用的METAR站距离机场46 km。
罗盘
风向 的 风向 的 风向 到 风向 300° 直升机
风: 6 kt, 2 beaufort
0 ft 2.000 4.000 6.000 8.000 10.000
Cloud Cloud Cloud Cloud Cloud Cloud Cloud Cloud
OVC 7.300
METAR EDAH 180550Z AUTO 30006KT 270V330 9999 // OVC073/// 05/02 Q1013

METAR Kemnitz Heliport - DE-0384

Kemnitz Heliport是,德国中的直升机场。 该机场位于纬度54,08242和经度13,53615。 这个机场没有ICAO代码,我们使用DE-0384作为参考。 机场在Bremen FIR中。

该航空气象观测是针对Heringsdorf Airport在2024年4月18日 07:50, 当地时间进行的。

机场观察

风向为300°,速度为6 kt。 风向在270°和330°之间变化。

可见度为10 km 或者更多。

有乌云密布在7.300 ft的高度。 破损或更高的上限为7.300 ft。

温度为5 °C,阵风为1 °C。 露点为2 °C,相对湿度为81%。 海平面上的气压为1013 hPa (QNH)。

白天

今天,太阳从05:56升起,在20:14降落。 这适用于Kemnitz Heliport,世界夏令时可能有所不同。 当地时间与世界标准时间之间的时差为+2 小时。 夏令时目前正在进行中。

公司介绍

我们没有关于这个机场的公司信息。

体会

到Vliegles.nl去找飞行课程,跳伞和其他飞行体验。 浏览页面,了解Kemnitz Heliport附近所有可用的活动。 你也可以使用搜索功能来寻找你所在地附近的特定飞行课程、跳伞或其他飞行体验。

乌云

7.300 ft OVC 乌云密布

温度 & 天气

温度 5 °C
露点 2 °C
相对湿度 81%
风寒 1 °C
Kp-index 0 (0-9)

白天

日出
05:54
中午
13:02
日落
20:11 (11:42)

小工具

你想在你的网站上有一个关于Kemnitz Heliport的当前航空天气(METAR)的小部件吗?

显示HTML代码
报告变更